createdAt,value
2019-04-09T00:01:30.571Z,11.20
2019-04-09T00:04:00.558Z,11.20
2019-04-09T00:06:30.014Z,11.30
2019-04-09T00:09:00.507Z,11.30
2019-04-09T00:11:30.442Z,11.30
2019-04-09T00:13:59.998Z,11.30
2019-04-09T00:16:29.463Z,11.30
2019-04-09T00:18:58.901Z,11.30
2019-04-09T00:21:29.493Z,11.30
2019-04-09T00:23:59.454Z,11.30
2019-04-09T00:26:28.969Z,11.30
2019-04-09T00:28:58.680Z,11.30
2019-04-09T00:31:29.030Z,11.20
2019-04-09T00:33:59.132Z,11.30
2019-04-09T00:36:31.539Z,11.30
2019-04-09T00:39:01.623Z,11.30
2019-04-09T00:41:31.489Z,11.30
2019-04-09T00:44:00.892Z,11.20
2019-04-09T00:46:30.688Z,11.20
2019-04-09T00:49:00.855Z,11.20
2019-04-09T00:51:31.003Z,11.20
2019-04-09T00:54:00.920Z,11.20
2019-04-09T00:56:30.338Z,11.20
2019-04-09T00:59:01.098Z,11.20
2019-04-09T01:01:32.373Z,11.20
2019-04-09T01:04:01.922Z,11.20
2019-04-09T01:06:31.629Z,11.10
2019-04-09T01:09:01.302Z,11.10
2019-04-09T01:11:31.738Z,11.10
2019-04-09T01:14:01.302Z,11.10
2019-04-09T01:16:31.786Z,11.10
2019-04-09T01:19:09.862Z,11.10
2019-04-09T01:21:32.748Z,11.10
2019-04-09T01:24:03.153Z,11.10
2019-04-09T01:26:53.549Z,11.10
2019-04-09T01:29:47.705Z,11.00
2019-04-09T01:32:25.166Z,11.00
2019-04-09T01:35:28.952Z,11.00
2019-04-09T01:38:27.415Z,11.00
2019-04-09T01:41:09.684Z,11.00
2019-04-09T01:43:58.952Z,11.00
2019-04-09T01:46:51.350Z,10.90
2019-04-09T01:49:37.588Z,10.90
2019-04-09T01:52:20.282Z,10.90
2019-04-09T01:55:11.780Z,10.90
2019-04-09T01:57:52.223Z,10.80
2019-04-09T02:00:53.098Z,10.80
2019-04-09T02:03:43.339Z,10.70
2019-04-09T02:06:37.784Z,10.60
2019-04-09T02:09:30.717Z,10.50
2019-04-09T02:12:22.477Z,10.50
2019-04-09T02:15:00.669Z,10.40
2019-04-09T02:17:51.379Z,10.30
2019-04-09T02:20:39.765Z,10.20
2019-04-09T02:23:15.815Z,10.20
2019-04-09T02:25:59.250Z,10.10
2019-04-09T02:28:46.488Z,10.00
2019-04-09T02:31:42.819Z,9.90
2019-04-09T02:34:27.639Z,9.90
2019-04-09T02:37:27.350Z,9.80
2019-04-09T02:40:13.646Z,9.70
2019-04-09T02:43:10.313Z,9.70
2019-04-09T02:46:11.632Z,9.70
2019-04-09T02:49:02.661Z,9.60
2019-04-09T02:51:52.695Z,9.60
2019-04-09T02:54:42.052Z,9.50
2019-04-09T02:57:17.606Z,9.50
2019-04-09T03:00:09.617Z,9.50
2019-04-09T03:02:54.764Z,9.50
2019-04-09T03:05:42.798Z,9.40
2019-04-09T03:08:23.354Z,9.30
2019-04-09T03:11:10.561Z,9.30
2019-04-09T03:14:02.116Z,9.30
2019-04-09T03:16:49.233Z,9.20
2019-04-09T03:19:34.667Z,9.10
2019-04-09T03:22:29.283Z,9.20
2019-04-09T03:25:24.013Z,9.10
2019-04-09T03:28:14.927Z,9.10
2019-04-09T03:31:01.811Z,9.00
2019-04-09T03:33:45.857Z,9.10
2019-04-09T03:36:32.483Z,9.00
2019-04-09T03:39:19.967Z,9.00
2019-04-09T03:42:03.834Z,9.00
2019-04-09T03:44:52.329Z,9.00
2019-04-09T03:47:46.794Z,9.00
2019-04-09T03:50:43.946Z,9.00
2019-04-09T03:53:35.191Z,9.00
2019-04-09T03:56:13.913Z,9.00
2019-04-09T03:59:06.604Z,9.00
2019-04-09T04:01:55.363Z,9.00
2019-04-09T04:04:59.002Z,9.00
2019-04-09T04:07:56.377Z,9.00
2019-04-09T04:10:44.354Z,9.00
2019-04-09T04:13:31.713Z,9.10
2019-04-09T04:16:19.660Z,9.10
2019-04-09T04:19:17.235Z,9.10
2019-04-09T04:22:24.868Z,9.10
2019-04-09T04:25:12.432Z,9.00
2019-04-09T04:28:05.042Z,9.00
2019-04-09T04:30:46.139Z,9.00
2019-04-09T04:33:41.247Z,9.00
2019-04-09T04:36:39.381Z,9.10
2019-04-09T04:39:27.124Z,9.10
2019-04-09T04:42:14.782Z,9.10
2019-04-09T04:45:01.846Z,9.10
2019-04-09T04:48:05.541Z,9.10
2019-04-09T04:50:52.278Z,9.10
2019-04-09T04:53:50.988Z,9.10
2019-04-09T04:56:58.420Z,9.10
2019-04-09T04:59:46.443Z,9.20
2019-04-09T05:02:23.129Z,9.20
2019-04-09T05:05:31.008Z,9.20
2019-04-09T05:08:19.498Z,9.20
2019-04-09T05:11:12.508Z,9.20
2019-04-09T05:14:01.358Z,9.30
2019-04-09T05:16:53.754Z,9.30
2019-04-09T05:19:48.872Z,9.30
2019-04-09T05:22:44.362Z,9.30
2019-04-09T05:25:28.041Z,9.40
2019-04-09T05:28:10.107Z,9.40
2019-04-09T05:30:48.456Z,9.40
2019-04-09T05:33:42.757Z,9.40
2019-04-09T05:36:46.338Z,9.50
2019-04-09T05:39:28.834Z,9.50
2019-04-09T05:42:15.676Z,9.50
2019-04-09T05:45:04.058Z,9.50
2019-04-09T05:47:43.139Z,9.60
2019-04-09T05:50:28.392Z,9.60
2019-04-09T05:53:15.810Z,9.70
2019-04-09T05:56:16.476Z,9.70
2019-04-09T05:59:23.494Z,9.80
2019-04-09T06:02:03.327Z,9.90
2019-04-09T06:04:54.488Z,9.90
2019-04-09T06:07:52.089Z,10.00
2019-04-09T06:10:21.932Z,10.00
2019-04-09T06:12:51.498Z,10.10
2019-04-09T06:15:21.217Z,10.10
2019-04-09T06:17:50.654Z,10.20
2019-04-09T06:20:21.015Z,10.20
2019-04-09T06:22:50.556Z,10.20
2019-04-09T06:25:20.978Z,10.30
2019-04-09T06:27:51.348Z,10.40
2019-04-09T06:30:21.731Z,10.40
2019-04-09T06:33:19.708Z,10.50
2019-04-09T06:36:06.969Z,10.60
2019-04-09T06:39:04.344Z,10.70
2019-04-09T06:41:52.922Z,10.80
2019-04-09T06:44:32.637Z,10.90
2019-04-09T06:47:20.365Z,11.00
2019-04-09T06:50:09.374Z,11.10
2019-04-09T06:52:47.286Z,11.20
2019-04-09T06:55:38.445Z,11.20
2019-04-09T06:58:33.173Z,11.30
2019-04-09T07:01:17.118Z,11.30
2019-04-09T07:03:57.256Z,11.30
2019-04-09T07:06:46.538Z,11.40
2019-04-09T07:09:53.778Z,11.40
2019-04-09T07:12:49.140Z,11.40
2019-04-09T07:15:45.896Z,11.40
2019-04-09T07:18:33.449Z,11.50
2019-04-09T07:21:22.376Z,11.60
2019-04-09T07:24:09.501Z,11.70
2019-04-09T07:26:48.578Z,11.70
2019-04-09T07:29:44.563Z,11.80
2019-04-09T07:32:30.430Z,11.90
2019-04-09T07:35:06.390Z,12.00
2019-04-09T07:38:03.507Z,12.10
2019-04-09T07:40:55.448Z,12.20
2019-04-09T07:43:37.361Z,12.30
2019-04-09T07:46:24.157Z,12.40
2019-04-09T07:49:09.719Z,12.60
2019-04-09T07:51:58.955Z,12.80
2019-04-09T07:54:49.430Z,12.90
2019-04-09T07:57:24.114Z,13.10
2019-04-09T08:00:15.233Z,13.20
2019-04-09T08:02:53.291Z,13.30
2019-04-09T08:05:43.894Z,13.40
2019-04-09T08:08:38.555Z,13.50
2019-04-09T08:11:15.853Z,13.60
2019-04-09T08:14:05.570Z,13.70
2019-04-09T08:16:48.614Z,13.90
2019-04-09T08:19:35.722Z,14.10
2019-04-09T08:22:27.273Z,14.30
2019-04-09T08:25:16.805Z,14.40
2019-04-09T08:28:08.062Z,14.50
2019-04-09T08:31:05.617Z,14.50
2019-04-09T08:34:03.529Z,14.60
2019-04-09T08:36:59.494Z,14.60
2019-04-09T08:39:38.902Z,14.80
2019-04-09T08:42:16.975Z,14.90
2019-04-09T08:45:03.055Z,15.00
2019-04-09T08:48:08.579Z,15.20
2019-04-09T08:51:11.757Z,15.40
2019-04-09T08:54:00.463Z,15.60
2019-04-09T08:56:44.612Z,15.70
2019-04-09T08:59:33.116Z,15.90
2019-04-09T09:02:22.607Z,16.00
2019-04-09T09:05:14.606Z,16.00
2019-04-09T09:08:08.503Z,16.10
2019-04-09T09:10:58.571Z,16.10
2019-04-09T09:13:47.731Z,16.10
2019-04-09T09:16:42.216Z,16.20
2019-04-09T09:19:29.618Z,16.30
2019-04-09T09:22:44.383Z,16.30
2019-04-09T09:25:38.946Z,16.30
2019-04-09T09:28:16.356Z,16.40
2019-04-09T09:31:11.644Z,16.40
2019-04-09T09:33:54.587Z,16.60
2019-04-09T09:36:39.145Z,16.70
2019-04-09T09:39:32.094Z,16.80
2019-04-09T09:42:23.435Z,16.80
2019-04-09T09:45:14.742Z,16.80
2019-04-09T09:48:07.109Z,17.00
2019-04-09T09:51:11.744Z,17.20
2019-04-09T09:54:06.115Z,17.30
2019-04-09T09:57:13.988Z,17.40
2019-04-09T10:00:14.516Z,17.50
2019-04-09T10:03:01.562Z,17.70
2019-04-09T10:06:07.300Z,18.20
2019-04-09T10:09:03.972Z,18.60
2019-04-09T10:11:55.099Z,19.10
2019-04-09T10:14:40.275Z,19.50
2019-04-09T10:17:34.197Z,19.70
2019-04-09T10:20:18.832Z,20.20
2019-04-09T10:23:11.045Z,20.40
2019-04-09T10:26:01.889Z,20.60
2019-04-09T10:29:03.217Z,20.80
2019-04-09T10:32:00.758Z,21.10
2019-04-09T10:34:38.024Z,21.20
2019-04-09T10:37:26.080Z,21.40
2019-04-09T10:40:14.816Z,21.50
2019-04-09T10:43:02.766Z,21.60
2019-04-09T10:45:57.502Z,21.40
2019-04-09T10:48:48.653Z,21.40
2019-04-09T10:51:41.120Z,21.40
2019-04-09T10:54:26.021Z,21.30
2019-04-09T10:57:30.085Z,21.50
2019-04-09T11:00:16.657Z,21.60
2019-04-09T11:03:10.436Z,21.50
2019-04-09T11:05:51.039Z,21.30
2019-04-09T11:08:38.646Z,21.40
2019-04-09T11:11:26.782Z,21.20
2019-04-09T11:14:09.552Z,21.10
2019-04-09T11:16:58.324Z,21.00
2019-04-09T11:19:42.054Z,20.70
2019-04-09T11:22:36.996Z,20.90
2019-04-09T11:25:45.789Z,21.10
2019-04-09T11:28:43.814Z,21.20
2019-04-09T11:31:31.611Z,21.60
2019-04-09T11:34:19.462Z,21.70
2019-04-09T11:36:59.211Z,22.00
2019-04-09T11:39:55.277Z,22.10
2019-04-09T11:42:43.450Z,22.30
2019-04-09T11:45:26.575Z,22.70
2019-04-09T11:48:27.313Z,22.80
2019-04-09T11:51:07.727Z,23.00
2019-04-09T11:53:46.572Z,23.20
2019-04-09T11:56:40.129Z,23.40
2019-04-09T11:59:35.302Z,23.40
2019-04-09T12:02:18.329Z,23.60
2019-04-09T12:05:10.013Z,23.30
2019-04-09T12:07:46.344Z,23.10
2019-04-09T12:10:48.231Z,22.70
2019-04-09T12:13:26.477Z,22.70
2019-04-09T12:16:27.805Z,22.50
2019-04-09T12:19:15.121Z,22.30
2019-04-09T12:21:55.735Z,22.10
2019-04-09T12:24:43.354Z,21.90
2019-04-09T12:27:30.631Z,21.80
2019-04-09T12:30:26.053Z,21.50
2019-04-09T12:33:30.164Z,21.40
2019-04-09T12:36:33.405Z,21.60
2019-04-09T12:39:16.023Z,21.70
2019-04-09T12:41:54.600Z,22.10
2019-04-09T12:44:58.304Z,22.40
2019-04-09T12:47:58.779Z,22.50
2019-04-09T12:50:48.836Z,22.50
2019-04-09T12:53:26.547Z,22.60
2019-04-09T12:56:21.310Z,22.70
2019-04-09T12:59:19.176Z,22.60
2019-04-09T13:02:32.025Z,22.50
2019-04-09T13:05:29.830Z,22.20
2019-04-09T13:08:27.537Z,22.10
2019-04-09T13:11:16.213Z,22.00
2019-04-09T13:14:04.930Z,22.30
2019-04-09T13:16:52.380Z,22.50
2019-04-09T13:19:43.943Z,22.60
2019-04-09T13:22:42.084Z,22.90
2019-04-09T13:25:25.972Z,22.70
2019-04-09T13:28:14.298Z,22.50
2019-04-09T13:30:59.356Z,22.40
2019-04-09T13:33:51.149Z,22.40
2019-04-09T13:36:38.413Z,22.40
2019-04-09T13:39:40.134Z,22.50
2019-04-09T13:42:24.657Z,22.40
2019-04-09T13:45:12.086Z,22.20
2019-04-09T13:47:52.026Z,21.90
2019-04-09T13:50:35.060Z,21.70
2019-04-09T13:53:04.900Z,21.60
2019-04-09T13:55:34.554Z,21.30
2019-04-09T13:58:04.753Z,21.20
2019-04-09T14:00:35.727Z,21.30
2019-04-09T14:03:26.231Z,21.30
2019-04-09T14:05:48.587Z,21.10
2019-04-09T14:08:19.217Z,20.60
2019-04-09T14:10:54.234Z,20.30
2019-04-09T14:13:20.320Z,20.20
2019-04-09T14:15:51.039Z,20.10
2019-04-09T14:18:20.477Z,19.90
2019-04-09T14:20:49.932Z,19.70
2019-04-09T14:23:19.893Z,19.70
2019-04-09T14:25:49.890Z,19.70
2019-04-09T14:28:19.797Z,19.70
2019-04-09T14:30:50.537Z,19.80
2019-04-09T14:33:20.652Z,19.90
2019-04-09T14:35:50.239Z,20.00
2019-04-09T14:38:19.808Z,20.10
2019-04-09T14:40:50.204Z,20.00
2019-04-09T14:43:21.746Z,19.80
2019-04-09T14:45:52.853Z,19.50
2019-04-09T14:48:30.873Z,19.40
2019-04-09T14:51:00.538Z,19.40
2019-04-09T14:53:30.150Z,19.10
2019-04-09T14:56:00.052Z,18.80
2019-04-09T14:58:29.546Z,18.70
2019-04-09T15:00:59.206Z,18.40
2019-04-09T15:03:29.414Z,18.20
2019-04-09T15:05:59.570Z,17.90
2019-04-09T15:08:29.349Z,17.80
2019-04-09T15:10:59.196Z,17.60
2019-04-09T15:13:32.563Z,17.50
2019-04-09T15:16:03.307Z,17.20
2019-04-09T15:18:33.910Z,17.10
2019-04-09T15:21:35.416Z,17.00
2019-04-09T15:24:07.506Z,16.90
2019-04-09T15:26:38.463Z,16.80
2019-04-09T15:29:08.978Z,16.70
2019-04-09T15:31:38.580Z,16.60
2019-04-09T15:34:08.717Z,16.50
2019-04-09T15:36:38.164Z,16.40
2019-04-09T15:39:17.534Z,16.20
2019-04-09T15:41:47.283Z,16.10
2019-04-09T15:44:17.594Z,16.00
2019-04-09T15:46:47.972Z,16.00
2019-04-09T15:49:17.902Z,15.80
2019-04-09T15:51:47.462Z,15.80
2019-04-09T15:54:17.244Z,15.70
2019-04-09T15:56:46.767Z,15.70
2019-04-09T15:59:18.302Z,15.60
2019-04-09T16:01:48.024Z,15.60
2019-04-09T16:04:17.489Z,15.60
2019-04-09T16:06:46.967Z,15.60
2019-04-09T16:09:20.802Z,15.50
2019-04-09T16:11:51.551Z,15.40
2019-04-09T16:14:22.380Z,15.40
2019-04-09T16:16:52.564Z,15.30
2019-04-09T16:19:22.096Z,15.30
2019-04-09T16:21:53.114Z,15.20
2019-04-09T16:24:23.450Z,15.20
2019-04-09T16:26:54.163Z,15.10
2019-04-09T16:29:24.053Z,15.00
2019-04-09T16:31:53.630Z,15.00
2019-04-09T16:34:32.474Z,15.00
2019-04-09T16:37:09.018Z,14.90
2019-04-09T16:39:34.527Z,14.80
2019-04-09T16:42:04.054Z,14.80
2019-04-09T16:44:34.157Z,14.70
2019-04-09T16:47:03.952Z,14.70
2019-04-09T16:49:33.706Z,14.60
2019-04-09T16:52:04.020Z,14.50
2019-04-09T16:54:34.763Z,14.50
2019-04-09T16:57:05.311Z,14.40
2019-04-09T16:59:35.247Z,14.40
2019-04-09T17:02:05.751Z,14.30
2019-04-09T17:04:36.087Z,14.20
2019-04-09T17:07:05.660Z,14.10
2019-04-09T17:09:38.511Z,14.10
2019-04-09T17:12:10.339Z,14.00
2019-04-09T17:14:38.954Z,14.00
2019-04-09T17:17:09.032Z,13.90
2019-04-09T17:19:39.522Z,13.80
2019-04-09T17:22:10.095Z,13.80
2019-04-09T17:24:45.531Z,13.80
2019-04-09T17:27:15.921Z,13.70
2019-04-09T17:29:46.178Z,13.70
2019-04-09T17:32:15.736Z,13.60
2019-04-09T17:35:04.597Z,13.50
2019-04-09T17:37:34.285Z,13.50
2019-04-09T17:40:09.257Z,13.40
2019-04-09T17:42:36.329Z,13.30
2019-04-09T17:45:06.870Z,13.30
2019-04-09T17:47:36.663Z,13.30
2019-04-09T17:50:06.503Z,13.20
2019-04-09T17:52:39.036Z,13.20
2019-04-09T17:55:10.528Z,13.20
2019-04-09T17:57:40.913Z,13.10
2019-04-09T18:00:13.078Z,13.00
2019-04-09T18:02:42.842Z,12.90
2019-04-09T18:05:12.749Z,12.90
2019-04-09T18:07:42.720Z,12.90
2019-04-09T18:10:12.560Z,12.80
2019-04-09T18:12:43.098Z,12.80
2019-04-09T18:15:13.535Z,12.70
2019-04-09T18:17:43.888Z,12.60
2019-04-09T18:20:13.989Z,12.60
2019-04-09T18:22:43.514Z,12.60
2019-04-09T18:25:13.591Z,12.50
2019-04-09T18:27:43.590Z,12.50
2019-04-09T18:30:13.581Z,12.50
2019-04-09T18:32:43.539Z,12.40
2019-04-09T18:35:13.445Z,12.40
2019-04-09T18:37:43.082Z,12.40
2019-04-09T18:40:12.978Z,12.30
2019-04-09T18:42:43.468Z,12.30
2019-04-09T18:45:14.176Z,12.20
2019-04-09T18:47:44.249Z,12.20
2019-04-09T18:50:14.771Z,12.10
2019-04-09T18:52:44.702Z,12.10
2019-04-09T18:55:14.520Z,12.20
2019-04-09T18:57:44.680Z,12.10
2019-04-09T19:00:15.038Z,12.10
2019-04-09T19:02:45.231Z,12.10
2019-04-09T19:05:16.665Z,12.10
2019-04-09T19:07:48.030Z,12.10
2019-04-09T19:10:18.637Z,12.00
2019-04-09T19:12:48.949Z,12.00
2019-04-09T19:15:18.939Z,11.90
2019-04-09T19:17:48.687Z,11.90
2019-04-09T19:20:19.469Z,11.90
2019-04-09T19:22:49.551Z,11.90
2019-04-09T19:25:19.914Z,11.80
2019-04-09T19:27:50.012Z,11.80
2019-04-09T19:30:20.648Z,11.80
2019-04-09T19:32:51.552Z,11.80
2019-04-09T19:35:28.620Z,11.80
2019-04-09T19:37:53.063Z,11.70
2019-04-09T19:40:25.696Z,11.70
2019-04-09T19:42:55.715Z,11.70
2019-04-09T19:45:28.516Z,11.70
2019-04-09T19:47:57.941Z,11.70
2019-04-09T19:50:27.851Z,11.60
2019-04-09T19:52:57.941Z,11.60
2019-04-09T19:55:28.500Z,11.60
2019-04-09T19:57:58.048Z,11.50
2019-04-09T20:00:28.995Z,11.50
2019-04-09T20:02:59.027Z,11.40
2019-04-09T20:05:35.202Z,11.40
2019-04-09T20:08:00.755Z,11.40
2019-04-09T20:10:41.212Z,11.30
2019-04-09T20:13:12.430Z,11.30
2019-04-09T20:15:42.302Z,11.30
2019-04-09T20:18:11.966Z,11.30
2019-04-09T20:20:41.405Z,11.20
2019-04-09T20:23:11.919Z,11.20
2019-04-09T20:25:41.911Z,11.20
2019-04-09T20:28:11.972Z,11.20
2019-04-09T20:30:41.497Z,11.10
2019-04-09T20:33:11.017Z,11.10
2019-04-09T20:35:46.513Z,11.10
2019-04-09T20:38:11.994Z,11.00
2019-04-09T20:40:41.712Z,11.00
2019-04-09T20:43:11.489Z,10.90
2019-04-09T20:45:40.848Z,10.90
2019-04-09T20:48:11.169Z,10.90
2019-04-09T20:50:41.593Z,10.90
2019-04-09T20:53:11.851Z,10.90
2019-04-09T20:55:42.298Z,10.90
2019-04-09T20:58:12.752Z,10.90
2019-04-09T21:01:01.454Z,10.80
2019-04-09T21:03:57.721Z,10.90
2019-04-09T21:06:22.535Z,10.80
2019-04-09T21:08:51.958Z,10.80
2019-04-09T21:11:22.234Z,10.80
2019-04-09T21:13:52.164Z,10.80
2019-04-09T21:16:22.587Z,10.80
2019-04-09T21:18:52.161Z,10.80
2019-04-09T21:21:22.805Z,10.70
2019-04-09T21:23:53.132Z,10.70
2019-04-09T21:26:23.037Z,10.70
2019-04-09T21:28:54.117Z,10.70
2019-04-09T21:31:25.033Z,10.70
2019-04-09T21:33:55.013Z,10.70
2019-04-09T21:36:25.032Z,10.80
2019-04-09T21:38:54.512Z,10.70
2019-04-09T21:41:24.234Z,10.60
2019-04-09T21:43:54.501Z,10.60
2019-04-09T21:46:26.703Z,10.60
2019-04-09T21:48:55.712Z,10.60
2019-04-09T21:51:25.855Z,10.60
2019-04-09T21:53:55.388Z,10.50
2019-04-09T21:56:26.018Z,10.50
2019-04-09T21:58:55.509Z,10.60
2019-04-09T22:01:26.106Z,10.50
2019-04-09T22:03:55.572Z,10.50
2019-04-09T22:06:29.528Z,10.50
2019-04-09T22:08:56.716Z,10.40
2019-04-09T22:11:26.814Z,10.40
2019-04-09T22:13:56.246Z,10.40
2019-04-09T22:16:26.183Z,10.30
2019-04-09T22:18:56.389Z,10.30
2019-04-09T22:21:26.051Z,10.30
2019-04-09T22:23:57.725Z,10.20
2019-04-09T22:26:26.663Z,10.20
2019-04-09T22:28:56.727Z,10.10
2019-04-09T22:31:26.642Z,10.10
2019-04-09T22:33:57.425Z,10.10
2019-04-09T22:36:32.673Z,10.10
2019-04-09T22:38:58.020Z,10.10
2019-04-09T22:41:27.452Z,10.00
2019-04-09T22:43:57.512Z,10.00
2019-04-09T22:46:28.605Z,10.00
2019-04-09T22:48:58.130Z,9.90
2019-04-09T22:51:28.504Z,9.90
2019-04-09T22:53:58.104Z,9.90
2019-04-09T22:56:27.477Z,9.90
2019-04-09T22:58:57.446Z,9.80
2019-04-09T23:01:38.528Z,9.80
2019-04-09T23:04:15.825Z,9.80
2019-04-09T23:07:00.913Z,9.80
2019-04-09T23:09:51.279Z,9.80
2019-04-09T23:12:49.991Z,9.70
2019-04-09T23:15:33.264Z,9.60
2019-04-09T23:18:03.000Z,9.60
2019-04-09T23:20:33.046Z,9.50
2019-04-09T23:23:03.354Z,9.50
2019-04-09T23:25:32.998Z,9.40
2019-04-09T23:28:03.213Z,9.30
2019-04-09T23:30:32.734Z,9.20
2019-04-09T23:33:02.165Z,9.10
2019-04-09T23:35:32.875Z,9.10
2019-04-09T23:38:02.420Z,9.00
2019-04-09T23:40:31.886Z,9.00
2019-04-09T23:43:01.645Z,8.90
2019-04-09T23:45:31.225Z,8.90
